Time;durP1;ratioP1;P1;durP2;ratioP2;P2;SDS_P1;SDS_P2;PMS_P1;PMS_P2;Temp;Humidity;BMP_temperature;BMP_pressure;BME280_temperature;BME280_humidity;BME280_pressure;Samples;Min_cycle;Max_cycle;Signal;HPM_P1;HPM_P2
2022/01/01 00:02:23;;;;;;;1.90;1.90;;;17.60;69.10;;;;;;4962141;28;44034;-69
2022/01/01 00:05:06;;;;;;;2.00;2.00;;;17.50;69.30;;;;;;4965204;28;44030;-69
2022/01/01 00:07:34;;;;;;;1.90;1.90;;;17.40;69.60;;;;;;4968775;28;43957;-69
2022/01/01 00:10:03;;;;;;;1.90;1.90;;;17.40;69.80;;;;;;4968440;28;43431;-69
2022/01/01 00:12:31;;;;;;;1.90;1.90;;;17.30;70.00;;;;;;4968714;28;43998;-69
2022/01/01 00:14:59;;;;;;;1.97;1.97;;;17.30;70.20;;;;;;4968928;28;44035;-69
2022/01/01 00:17:27;;;;;;;2.10;2.10;;;17.20;70.30;;;;;;4968492;28;43962;-69
2022/01/01 00:19:55;;;;;;;2.10;2.10;;;17.20;70.40;;;;;;4968320;28;43949;-69
2022/01/01 00:22:24;;;;;;;2.03;2.03;;;17.20;70.60;;;;;;4968554;28;43922;-69
2022/01/01 00:24:52;;;;;;;2.20;2.10;;;17.20;70.70;;;;;;4968777;28;43903;-69
2022/01/01 00:27:20;;;;;;;1.90;1.90;;;17.30;70.50;;;;;;4968166;28;44012;-68
2022/01/01 00:29:47;;;;;;;2.10;2.10;;;17.40;70.10;;;;;;4967967;28;44037;-69
2022/01/01 00:32:16;;;;;;;2.07;2.07;;;17.50;69.60;;;;;;4968268;28;43961;-69
2022/01/01 00:34:44;;;;;;;2.40;2.30;;;17.60;69.30;;;;;;4968883;28;44032;-69
2022/01/01 00:37:12;;;;;;;1.93;1.93;;;17.60;69.30;;;;;;4968238;28;43762;-68
2022/01/01 00:39:41;;;;;;;1.90;1.90;;;17.50;69.40;;;;;;4968215;28;43906;-69
2022/01/01 00:42:10;;;;;;;1.90;1.90;;;17.50;69.60;;;;;;4968137;28;43967;-69
2022/01/01 00:44:37;;;;;;;2.00;2.00;;;17.40;69.80;;;;;;4968058;28;44226;-69
2022/01/01 00:47:06;;;;;;;2.00;2.00;;;17.30;70.00;;;;;;4967860;28;43896;-70
2022/01/01 00:49:34;;;;;;;2.10;2.10;;;17.30;70.20;;;;;;4982868;28;44329;-69
2022/01/01 00:52:01;;;;;;;1.93;1.93;;;17.20;70.30;;;;;;4968057;28;43943;-69
2022/01/01 00:54:29;;;;;;;1.90;1.90;;;17.20;70.40;;;;;;4968519;28;43525;-69
2022/01/01 00:56:59;;;;;;;2.10;2.10;;;17.20;70.60;;;;;;4967810;28;44238;-69
2022/01/01 00:59:28;;;;;;;2.03;2.03;;;17.10;70.50;;;;;;4982121;28;44638;-70
2022/01/01 01:01:56;;;;;;;2.17;2.17;;;17.10;70.80;;;;;;4967132;28;43860;-69
2022/01/01 01:04:24;;;;;;;1.87;1.87;;;17.20;70.70;;;;;;4967817;28;43995;-69
2022/01/01 01:06:52;;;;;;;2.30;2.20;;;17.30;70.30;;;;;;4982227;28;47196;-68
2022/01/01 01:09:20;;;;;;;1.83;1.83;;;17.50;69.90;;;;;;4967469;28;43936;-68
2022/01/01 01:11:51;;;;;;;2.00;2.00;;;17.60;70.00;;;;;;4967504;28;43958;-69
2022/01/01 01:14:23;;;;;;;1.90;1.90;;;17.70;69.10;;;;;;4966753;28;44042;-69
2022/01/01 01:16:52;;;;;;;2.47;2.43;;;17.60;68.90;;;;;;4968017;28;44242;-69
2022/01/01 01:19:20;;;;;;;2.20;2.20;;;17.60;69.10;;;;;;4967712;28;43532;-69
2022/01/01 01:21:49;;;;;;;2.20;2.20;;;17.50;69.30;;;;;;4967929;28;43981;-69
2022/01/01 01:24:18;;;;;;;2.07;2.07;;;17.50;69.60;;;;;;4967956;28;43859;-69
2022/01/01 01:26:49;;;;;;;2.17;2.17;;;17.40;69.80;;;;;;4967471;28;43933;-69
2022/01/01 01:29:18;;;;;;;2.00;2.00;;;17.30;69.90;;;;;;4981847;28;46292;-69
2022/01/01 01:31:47;;;;;;;2.13;2.13;;;17.30;70.10;;;;;;4967127;28;43417;-68
2022/01/01 01:34:15;;;;;;;2.20;2.20;;;17.30;70.30;;;;;;4967401;28;44371;-69
2022/01/01 01:36:43;;;;;;;2.40;2.40;;;17.20;70.30;;;;;;4967005;28;43962;-70
2022/01/01 01:39:10;;;;;;;2.40;2.40;;;17.20;70.60;;;;;;4966229;28;43801;-70
2022/01/01 01:41:41;;;;;;;2.17;2.17;;;17.20;70.70;;;;;;4966912;28;43938;-68
2022/01/01 01:44:23;;;;;;;2.20;2.20;;;17.30;71.10;;;;;;4967438;28;44004;-69
2022/01/01 01:46:53;;;;;;;2.40;2.40;;;17.40;69.90;;;;;;4967026;28;43965;-69
2022/01/01 01:49:21;;;;;;;2.17;2.17;;;17.40;69.70;;;;;;4959332;28;43951;-70
2022/01/01 01:51:49;;;;;;;2.07;2.07;;;17.40;69.60;;;;;;4948220;28;43864;-69
2022/01/01 01:54:17;;;;;;;2.00;2.00;;;17.40;69.80;;;;;;4948534;28;44270;-69
2022/01/01 01:56:47;;;;;;;2.40;2.40;;;17.30;69.90;;;;;;4948188;28;43948;-69
2022/01/01 01:59:15;;;;;;;2.43;2.43;;;17.30;70.10;;;;;;4948058;28;44022;-69
2022/01/01 02:01:43;;;;;;;2.33;2.33;;;17.20;70.20;;;;;;4947722;28;44117;-69
2022/01/01 02:04:12;;;;;;;2.40;2.40;;;17.20;70.40;;;;;;4948582;28;43573;-69
2022/01/01 02:06:41;;;;;;;2.10;2.10;;;17.20;70.60;;;;;;4947892;28;44077;-69
2022/01/01 02:09:10;;;;;;;2.07;2.07;;;17.10;70.50;;;;;;4947958;28;44197;-69
2022/01/01 02:11:38;;;;;;;2.60;2.50;;;17.10;70.70;;;;;;4948175;28;43877;-69
2022/01/01 02:14:19;;;;;;;2.30;2.30;;;17.10;70.70;;;;;;4948527;28;43567;-69
2022/01/01 02:17:07;;;;;;;2.40;2.40;;;17.10;70.80;;;;;;4947921;28;43965;-69
2022/01/01 02:19:49;;;;;;;2.30;2.30;;;17.10;70.90;;;;;;4961396;28;43807;-69
2022/01/01 02:22:18;;;;;;;2.40;2.40;;;17.30;70.60;;;;;;4966879;28;43813;-69
2022/01/01 02:24:47;;;;;;;2.33;2.30;;;17.40;70.00;;;;;;4967182;28;43529;-69
2022/01/01 02:27:14;;;;;;;2.20;2.20;;;17.60;69.50;;;;;;4966747;28;44090;-68
2022/01/01 02:29:42;;;;;;;2.37;2.37;;;17.70;69.10;;;;;;4966825;28;43917;-70
2022/01/01 02:32:13;;;;;;;2.10;2.10;;;17.70;68.90;;;;;;4966725;28;43960;-69
2022/01/01 02:34:41;;;;;;;2.30;2.30;;;17.60;68.90;;;;;;4967373;28;43429;-70
2022/01/01 02:37:09;;;;;;;2.33;2.33;;;17.50;69.10;;;;;;4966647;28;43926;-69
2022/01/01 02:39:38;;;;;;;2.47;2.47;;;17.40;69.40;;;;;;4966777;28;44017;-69
2022/01/01 02:42:08;;;;;;;2.20;2.20;;;17.40;69.70;;;;;;4966838;28;43976;-69
2022/01/01 02:44:35;;;;;;;2.23;2.23;;;17.30;69.90;;;;;;4966956;28;44314;-69
2022/01/01 02:47:04;;;;;;;2.53;2.50;;;17.30;70.10;;;;;;4966784;28;43859;-70
2022/01/01 02:49:31;;;;;;;2.20;2.20;;;17.20;70.20;;;;;;4981893;28;44069;-69
2022/01/01 02:51:59;;;;;;;2.60;2.50;;;17.20;70.30;;;;;;4969669;28;43962;-69
2022/01/01 02:54:27;;;;;;;2.30;2.30;;;17.20;70.40;;;;;;4970204;28;44037;-68
2022/01/01 02:56:57;;;;;;;2.40;2.40;;;17.20;70.60;;;;;;4969660;28;44753;-69
2022/01/01 02:59:25;;;;;;;2.37;2.37;;;17.30;70.50;;;;;;4968428;28;45127;-68
2022/01/01 03:01:53;;;;;;;2.20;2.17;;;17.40;70.00;;;;;;4969246;28;44049;-70
2022/01/01 03:04:21;;;;;;;2.50;2.50;;;17.40;69.60;;;;;;4970157;28;43966;-69
2022/01/01 03:06:55;;;;;;;2.87;2.70;;;17.40;69.50;;;;;;4969665;28;45082;-69
2022/01/01 03:09:24;;;;;;;2.40;2.30;;;17.40;69.70;;;;;;4969983;28;43966;-69
2022/01/01 03:11:52;;;;;;;2.37;2.37;;;17.40;69.80;;;;;;4969450;28;43888;-70
2022/01/01 03:14:21;;;;;;;2.60;2.60;;;17.30;70.00;;;;;;4970016;28;44289;-69
2022/01/01 03:16:51;;;;;;;2.20;2.20;;;17.30;70.20;;;;;;4969339;28;43947;-70
2022/01/01 03:19:18;;;;;;;2.40;2.40;;;17.20;71.00;;;;;;4969405;28;44043;-68
2022/01/01 03:21:46;;;;;;;2.07;2.07;;;17.20;70.40;;;;;;4969566;28;43408;-69
2022/01/01 03:24:14;;;;;;;2.43;2.43;;;17.10;70.40;;;;;;4969756;28;43951;-70
2022/01/01 03:26:42;;;;;;;2.60;2.60;;;17.20;70.60;;;;;;4969237;28;44213;-69
2022/01/01 03:29:11;;;;;;;2.23;2.23;;;17.10;70.60;;;;;;4969193;28;43479;-69
2022/01/01 03:31:40;;;;;;;2.50;2.50;;;17.10;70.70;;;;;;4983858;28;44109;-69
2022/01/01 03:34:08;;;;;;;2.47;2.47;;;17.10;70.90;;;;;;4969199;28;43424;-70
2022/01/01 03:36:36;;;;;;;2.50;2.50;;;17.20;70.90;;;;;;4969098;28;43670;-69
2022/01/01 03:39:04;;;;;;;2.20;2.20;;;17.30;70.40;;;;;;4969028;28;43812;-70
2022/01/01 03:41:32;;;;;;;2.30;2.30;;;17.50;70.00;;;;;;4968938;28;43987;-69
2022/01/01 03:44:00;;;;;;;2.40;2.40;;;17.60;69.30;;;;;;4968804;28;44227;-69
2022/01/01 03:46:28;;;;;;;2.50;2.50;;;17.70;69.00;;;;;;4968521;28;43926;-70
2022/01/01 03:48:57;;;;;;;2.30;2.30;;;17.70;69.50;;;;;;4968572;28;44031;-69
2022/01/01 03:51:26;;;;;;;2.10;2.10;;;17.60;69.00;;;;;;4968538;28;44114;-70
2022/01/01 03:53:54;;;;;;;2.20;2.20;;;17.50;69.20;;;;;;4968843;28;44284;-69
2022/01/01 03:56:22;;;;;;;2.30;2.30;;;17.40;69.50;;;;;;4968442;28;43966;-69
2022/01/01 03:58:50;;;;;;;2.37;2.37;;;17.40;69.80;;;;;;4968421;28;44317;-69
2022/01/01 04:01:18;;;;;;;2.40;2.30;;;17.30;70.00;;;;;;4967348;28;43995;-70
2022/01/01 04:03:46;;;;;;;2.33;2.33;;;17.30;70.20;;;;;;4968682;28;43929;-70
2022/01/01 04:06:15;;;;;;;2.30;2.30;;;17.20;70.30;;;;;;4968299;28;44094;-69
2022/01/01 04:08:43;;;;;;;2.20;2.20;;;17.20;70.50;;;;;;4983340;28;44709;-69
2022/01/01 04:11:11;;;;;;;2.30;2.30;;;17.20;70.70;;;;;;4974633;28;43903;-69
2022/01/01 04:13:39;;;;;;;2.43;2.43;;;17.20;70.70;;;;;;4968897;28;44017;-69
2022/01/01 04:16:08;;;;;;;2.20;2.20;;;17.30;70.30;;;;;;4968563;28;44123;-69
2022/01/01 04:18:38;;;;;;;2.40;2.40;;;17.40;70.00;;;;;;4968706;28;43341;-70
2022/01/01 04:21:07;;;;;;;2.40;2.40;;;17.40;69.70;;;;;;4968950;28;44001;-69
2022/01/01 04:23:37;;;;;;;2.40;2.40;;;17.40;69.70;;;;;;4962994;28;43935;-69
2022/01/01 04:26:06;;;;;;;2.30;2.30;;;17.40;70.60;;;;;;4968433;28;44074;-69
2022/01/01 04:28:34;;;;;;;2.63;2.53;;;17.30;69.90;;;;;;4968572;28;43886;-70
2022/01/01 04:31:01;;;;;;;2.27;2.27;;;17.30;70.10;;;;;;4968348;28;43954;-69
2022/01/01 04:33:30;;;;;;;2.30;2.30;;;17.20;70.20;;;;;;4968648;28;43946;-69
2022/01/01 04:35:57;;;;;;;2.23;2.23;;;17.20;70.30;;;;;;4968098;28;44035;-69
2022/01/01 04:38:36;;;;;;;2.00;2.00;;;17.20;70.50;;;;;;4968260;28;43947;-69
2022/01/01 04:41:06;;;;;;;2.50;2.50;;;17.20;70.60;;;;;;4968742;28;43920;-70
2022/01/01 04:43:34;;;;;;;2.27;2.27;;;17.10;70.50;;;;;;4968281;28;43948;-68
2022/01/01 04:46:02;;;;;;;2.20;2.20;;;17.10;70.70;;;;;;4968031;28;43918;-69
2022/01/01 04:48:30;;;;;;;2.33;2.33;;;17.10;70.70;;;;;;4967996;28;43955;-69
2022/01/01 04:50:58;;;;;;;2.20;2.20;;;17.10;70.80;;;;;;4982723;28;43997;-69
2022/01/01 04:53:25;;;;;;;2.40;2.40;;;17.30;70.60;;;;;;4967875;28;43903;-69
2022/01/01 04:55:53;;;;;;;2.20;2.20;;;17.40;70.10;;;;;;4967360;28;43992;-69
2022/01/01 04:58:23;;;;;;;2.40;2.40;;;17.60;69.60;;;;;;4967497;28;43972;-69
2022/01/01 05:00:51;;;;;;;2.07;2.07;;;17.70;69.10;;;;;;4967091;28;44048;-69
2022/01/01 05:03:18;;;;;;;2.20;2.20;;;17.80;68.80;;;;;;4967977;28;43910;-70
2022/01/01 05:05:46;;;;;;;2.30;2.30;;;17.70;68.70;;;;;;4967533;28;43913;-69
2022/01/01 05:08:14;;;;;;;2.20;2.20;;;17.60;68.90;;;;;;4967418;28;43962;-70
2022/01/01 05:10:42;;;;;;;2.30;2.30;;;17.50;69.10;;;;;;4967597;28;43733;-68
2022/01/01 05:13:10;;;;;;;2.33;2.33;;;17.50;69.50;;;;;;4966649;28;43970;-70
2022/01/01 05:15:39;;;;;;;2.10;2.10;;;17.40;69.70;;;;;;4967728;28;44047;-69
2022/01/01 05:18:07;;;;;;;2.33;2.33;;;17.40;69.90;;;;;;4967285;28;44042;-70
2022/01/01 05:20:35;;;;;;;2.43;2.43;;;17.30;70.70;;;;;;4967661;28;43959;-69
2022/01/01 05:23:03;;;;;;;2.10;2.10;;;17.20;70.10;;;;;;4965383;28;44092;-70
2022/01/01 05:25:31;;;;;;;2.40;2.40;;;17.20;70.30;;;;;;4948432;28;44055;-69
2022/01/01 05:27:59;;;;;;;2.50;2.50;;;17.20;70.60;;;;;;4948511;28;43971;-70
2022/01/01 05:30:27;;;;;;;2.73;2.63;;;17.30;70.50;;;;;;4957734;28;43888;-69
2022/01/01 05:33:01;;;;;;;2.30;2.30;;;17.40;70.00;;;;;;4966333;28;43959;-70
2022/01/01 05:35:29;;;;;;;2.30;2.30;;;17.40;69.60;;;;;;4967498;28;43941;-69
2022/01/01 05:37:57;;;;;;;2.50;2.50;;;17.50;69.60;;;;;;4967382;28;43951;-69
2022/01/01 05:40:45;;;;;;;2.20;2.20;;;17.40;69.60;;;;;;4967699;28;43986;-69
2022/01/01 05:43:13;;;;;;;2.20;2.20;;;17.40;69.80;;;;;;4961324;28;44250;-69
2022/01/01 05:45:42;;;;;;;2.53;2.33;;;17.30;70.00;;;;;;4959651;28;44168;-70
2022/01/01 05:48:11;;;;;;;2.30;2.30;;;17.30;70.10;;;;;;4961205;28;44429;-69
2022/01/01 05:50:39;;;;;;;2.10;2.10;;;17.20;70.20;;;;;;4961445;28;43967;-69
2022/01/01 05:53:07;;;;;;;2.20;2.20;;;17.20;70.30;;;;;;4967703;28;43776;-68
2022/01/01 05:55:35;;;;;;;2.40;2.40;;;17.20;71.20;;;;;;4967380;28;44060;-69
2022/01/01 05:58:05;;;;;;;2.40;2.40;;;17.20;70.60;;;;;;4967622;28;43707;-69
2022/01/01 06:00:33;;;;;;;2.20;2.20;;;17.10;70.50;;;;;;4966613;28;43784;-69
2022/01/01 06:03:01;;;;;;;2.30;2.30;;;17.10;70.60;;;;;;4982001;28;43958;-69
2022/01/01 06:05:31;;;;;;;2.50;2.50;;;17.10;70.80;;;;;;4966789;28;44063;-69
2022/01/01 06:07:59;;;;;;;2.10;2.10;;;17.20;70.70;;;;;;4966545;28;43964;-69
2022/01/01 06:10:27;;;;;;;2.57;2.47;;;17.30;70.30;;;;;;4966662;28;44039;-69
2022/01/01 06:12:56;;;;;;;2.43;2.43;;;17.50;69.90;;;;;;4966775;28;43393;-69
2022/01/01 06:15:24;;;;;;;2.00;2.00;;;17.60;69.30;;;;;;4966384;28;43899;-69
2022/01/01 06:17:52;;;;;;;2.40;2.40;;;17.70;68.90;;;;;;4981487;28;45084;-69
2022/01/01 06:20:20;;;;;;;2.00;2.00;;;17.70;68.90;;;;;;4967017;28;44053;-69
2022/01/01 06:23:04;;;;;;;2.00;2.00;;;17.60;69.00;;;;;;4967274;28;43974;-69
2022/01/01 06:25:35;;;;;;;2.20;2.20;;;17.50;69.20;;;;;;4968892;28;43886;-69
2022/01/01 06:28:03;;;;;;;2.53;2.53;;;17.40;69.50;;;;;;4970325;28;43938;-69
2022/01/01 06:30:33;;;;;;;2.30;2.30;;;17.40;69.70;;;;;;4970177;28;43841;-70
2022/01/01 06:33:03;;;;;;;2.10;2.10;;;17.40;69.90;;;;;;4970532;28;44071;-69
2022/01/01 06:35:31;;;;;;;2.13;2.13;;;17.30;70.00;;;;;;4970023;28;43979;-69
2022/01/01 06:37:59;;;;;;;2.10;2.10;;;17.30;70.20;;;;;;4970033;28;43798;-70
2022/01/01 06:40:28;;;;;;;2.10;2.10;;;17.20;70.30;;;;;;4970170;28;44010;-69
2022/01/01 06:42:56;;;;;;;2.30;2.30;;;17.20;70.50;;;;;;4970498;28;44030;-69
2022/01/01 06:45:24;;;;;;;2.00;2.00;;;17.20;70.40;;;;;;4969246;28;44371;-69
2022/01/01 06:47:52;;;;;;;2.10;2.10;;;17.40;70.20;;;;;;4969986;28;44088;-69
2022/01/01 06:50:20;;;;;;;2.20;2.20;;;17.50;69.80;;;;;;4970009;28;43899;-69
2022/01/01 06:52:48;;;;;;;1.80;1.80;;;17.50;69.60;;;;;;4970244;28;43907;-69
2022/01/01 06:55:16;;;;;;;2.20;2.20;;;17.50;69.60;;;;;;4969889;28;43907;-69
2022/01/01 06:57:45;;;;;;;2.10;2.10;;;17.40;69.80;;;;;;4969876;28;44054;-69
2022/01/01 07:00:14;;;;;;;2.00;2.00;;;17.30;69.90;;;;;;4968435;28;43971;-69
2022/01/01 07:02:43;;;;;;;2.20;2.20;;;17.30;70.10;;;;;;4969905;28;44089;-69
2022/01/01 07:05:11;;;;;;;2.07;2.07;;;17.30;70.30;;;;;;4969400;28;44365;-69
2022/01/01 07:07:39;;;;;;;2.40;2.40;;;17.20;70.40;;;;;;4969715;28;44034;-69
2022/01/01 07:10:08;;;;;;;1.80;1.80;;;17.20;70.60;;;;;;4969871;28;44011;-69
2022/01/01 07:12:36;;;;;;;2.00;2.00;;;17.20;70.70;;;;;;4970179;28;43600;-70
2022/01/01 07:15:06;;;;;;;2.00;2.00;;;17.10;70.60;;;;;;4969367;28;43903;-70
2022/01/01 07:17:34;;;;;;;2.03;2.03;;;17.10;70.70;;;;;;4969508;28;43942;-69
2022/01/01 07:20:02;;;;;;;2.00;2.00;;;17.10;70.80;;;;;;4969369;28;43903;-70
2022/01/01 07:22:30;;;;;;;2.10;2.10;;;17.10;71.00;;;;;;4970231;28;43577;-69
2022/01/01 07:25:03;;;;;;;2.40;2.40;;;17.30;70.80;;;;;;4969460;28;45092;-69
2022/01/01 07:27:31;;;;;;;1.90;1.90;;;17.40;70.30;;;;;;4963164;28;44535;-68
2022/01/01 07:29:59;;;;;;;1.90;1.90;;;17.50;69.80;;;;;;4961626;28;44010;-69
2022/01/01 07:32:28;;;;;;;2.20;2.20;;;17.60;69.20;;;;;;4961825;28;43639;-70
2022/01/01 07:34:58;;;;;;;2.00;2.00;;;17.70;68.90;;;;;;4962414;28;44887;-70
2022/01/01 07:37:26;;;;;;;2.00;2.00;;;17.70;68.80;;;;;;4961861;28;43478;-69
2022/01/01 07:39:54;;;;;;;2.10;2.10;;;17.60;69.00;;;;;;4983314;28;43858;-70
2022/01/01 07:42:22;;;;;;;1.80;1.80;;;17.50;69.20;;;;;;4955980;28;44160;-70
2022/01/01 07:44:50;;;;;;;1.87;1.87;;;17.50;69.60;;;;;;4949296;28;43950;-69
2022/01/01 07:47:18;;;;;;;1.87;1.87;;;17.40;69.80;;;;;;4949696;28;43975;-70
2022/01/01 07:49:47;;;;;;;2.10;2.10;;;17.40;70.10;;;;;;4949778;28;44000;-69
2022/01/01 07:52:18;;;;;;;2.00;2.00;;;17.30;70.20;;;;;;4950406;28;43950;-70
2022/01/01 07:54:46;;;;;;;2.20;2.20;;;17.30;70.40;;;;;;4949341;28;44087;-70
2022/01/01 07:57:15;;;;;;;1.93;1.93;;;17.20;70.50;;;;;;4949515;28;43396;-69
2022/01/01 07:59:43;;;;;;;2.10;2.10;;;17.20;70.70;;;;;;4949529;28;43454;-69
2022/01/01 08:02:11;;;;;;;2.00;2.00;;;17.30;70.60;;;;;;4949706;28;43436;-70
2022/01/01 08:04:39;;;;;;;2.10;2.00;;;17.40;70.10;;;;;;4949442;28;44029;-69
2022/01/01 08:07:08;;;;;;;1.90;1.90;;;17.50;69.90;;;;;;4947937;28;45537;-69
2022/01/01 08:09:56;;;;;;;2.10;2.10;;;17.50;69.70;;;;;;4949658;28;43950;-69
2022/01/01 08:12:24;;;;;;;2.17;2.17;;;17.40;69.70;;;;;;4949715;28;43553;-69
2022/01/01 08:14:54;;;;;;;2.13;2.13;;;17.40;69.90;;;;;;4949208;28;43902;-70
2022/01/01 08:17:22;;;;;;;1.80;1.80;;;17.40;70.10;;;;;;4948268;28;45147;-70
2022/01/01 08:19:50;;;;;;;1.90;1.80;;;17.30;70.20;;;;;;4949438;28;44022;-69
2022/01/01 08:22:19;;;;;;;1.90;1.90;;;17.20;70.30;;;;;;4949507;28;43911;-69
2022/01/01 08:24:47;;;;;;;2.20;2.20;;;17.20;70.50;;;;;;4949015;28;45147;-69
2022/01/01 08:27:15;;;;;;;2.00;2.00;;;17.20;70.60;;;;;;4948802;28;43947;-69
2022/01/01 08:29:43;;;;;;;1.90;1.90;;;17.10;71.30;;;;;;4953795;28;43997;-69
2022/01/01 08:32:11;;;;;;;2.00;2.00;;;17.20;70.80;;;;;;4963717;28;44007;-69
2022/01/01 08:34:39;;;;;;;1.90;1.90;;;17.10;70.70;;;;;;4948838;28;44085;-69
2022/01/01 08:37:07;;;;;;;2.17;2.17;;;17.10;70.90;;;;;;4949098;28;44106;-69
2022/01/01 08:39:37;;;;;;;1.80;1.80;;;17.20;70.90;;;;;;4949158;28;43369;-70
2022/01/01 08:42:06;;;;;;;1.80;1.80;;;17.30;70.40;;;;;;4949562;28;43928;-70
2022/01/01 08:44:34;;;;;;;1.70;1.70;;;17.50;70.00;;;;;;4948642;28;43893;-69
2022/01/01 08:47:02;;;;;;;2.03;2.03;;;17.60;69.40;;;;;;4948608;28;43962;-70
2022/01/01 08:49:30;;;;;;;2.00;1.90;;;17.70;69.10;;;;;;4947662;28;43415;-70
2022/01/01 08:51:58;;;;;;;1.90;1.90;;;17.70;68.90;;;;;;4949150;28;43971;-70
2022/01/01 08:54:26;;;;;;;1.60;1.60;;;17.60;68.90;;;;;;4948581;28;44692;-69
2022/01/01 08:56:56;;;;;;;2.00;2.00;;;17.60;69.20;;;;;;4947337;28;43941;-69
2022/01/01 08:59:30;;;;;;;1.80;1.80;;;17.50;69.40;;;;;;4967830;28;43517;-70
2022/01/01 09:01:58;;;;;;;1.73;1.73;;;17.40;69.60;;;;;;4967505;28;44020;-68
2022/01/01 09:04:26;;;;;;;1.87;1.87;;;17.40;69.90;;;;;;4967473;28;43874;-70
2022/01/01 09:06:55;;;;;;;1.77;1.77;;;17.30;70.00;;;;;;4966152;28;44790;-70
2022/01/01 09:09:23;;;;;;;2.00;2.00;;;17.30;70.20;;;;;;4961351;28;43967;-69
2022/01/01 09:11:55;;;;;;;1.80;1.80;;;17.30;70.30;;;;;;4960587;28;43948;-69
2022/01/01 09:14:23;;;;;;;1.60;1.60;;;17.20;70.40;;;;;;4967189;28;43921;-69
2022/01/01 09:16:52;;;;;;;1.80;1.80;;;17.20;70.50;;;;;;4967210;28;43973;-68
2022/01/01 09:19:20;;;;;;;1.80;1.80;;;17.40;70.30;;;;;;4967381;28;43973;-70
2022/01/01 09:21:48;;;;;;;1.83;1.83;;;17.50;69.90;;;;;;4967732;28;43910;-69
2022/01/01 09:24:16;;;;;;;1.70;1.70;;;17.50;69.60;;;;;;4967020;28;43985;-69
2022/01/01 09:26:44;;;;;;;1.90;1.90;;;17.40;69.50;;;;;;4967024;28;44019;-69
2022/01/01 09:29:13;;;;;;;1.90;1.90;;;17.40;69.70;;;;;;4967173;28;44066;-69
2022/01/01 09:31:41;;;;;;;1.70;1.70;;;17.40;69.90;;;;;;4967497;28;43898;-69
2022/01/01 09:34:10;;;;;;;1.63;1.63;;;17.30;70.00;;;;;;4966776;28;43927;-70
2022/01/01 09:36:38;;;;;;;1.70;1.70;;;17.30;70.10;;;;;;4967063;28;43394;-69
2022/01/01 09:39:06;;;;;;;1.80;1.80;;;17.30;70.30;;;;;;4965922;28;43923;-69
2022/01/01 09:41:34;;;;;;;1.67;1.67;;;17.20;70.30;;;;;;4966265;28;43971;-69
2022/01/01 09:44:02;;;;;;;1.73;1.73;;;17.20;70.50;;;;;;4966701;28;44026;-70
2022/01/01 09:46:32;;;;;;;1.53;1.53;;;17.20;70.60;;;;;;4966691;28;43842;-69
2022/01/01 09:49:00;;;;;;;1.57;1.57;;;17.20;70.60;;;;;;4965990;28;44148;-70
2022/01/01 09:51:28;;;;;;;1.83;1.83;;;17.10;70.70;;;;;;4967504;28;44246;-70
2022/01/01 09:53:56;;;;;;;1.63;1.63;;;17.20;70.90;;;;;;4966888;28;44002;-69
2022/01/01 09:56:24;;;;;;;1.60;1.60;;;17.30;70.60;;;;;;4966665;28;43979;-70
2022/01/01 09:58:52;;;;;;;1.60;1.60;;;17.40;70.20;;;;;;4966978;28;43488;-69
2022/01/01 10:01:20;;;;;;;1.67;1.67;;;17.50;69.70;;;;;;4970531;28;44260;-69
2022/01/01 10:03:51;;;;;;;1.60;1.60;;;17.70;69.30;;;;;;4970248;28;43938;-69
2022/01/01 10:06:20;;;;;;;1.60;1.60;;;17.70;68.90;;;;;;4970185;28;43970;-69
2022/01/01 10:08:48;;;;;;;1.53;1.53;;;17.70;68.80;;;;;;4970401;28;43870;-69
2022/01/01 10:11:16;;;;;;;1.50;1.50;;;17.70;69.00;;;;;;4970576;28;43959;-69
2022/01/01 10:13:45;;;;;;;1.73;1.73;;;17.50;69.20;;;;;;4970004;28;45062;-69
2022/01/01 10:16:15;;;;;;;1.60;1.60;;;17.50;69.60;;;;;;4969966;28;43988;-69
2022/01/01 10:18:44;;;;;;;1.50;1.50;;;17.40;69.80;;;;;;4968937;28;44022;-69
2022/01/01 10:21:14;;;;;;;1.70;1.70;;;17.40;70.10;;;;;;4970359;28;43935;-69
2022/01/01 10:23:43;;;;;;;1.57;1.57;;;17.30;70.20;;;;;;4970040;28;44307;-70
2022/01/01 10:29:10;;;;;;;1.60;1.60;;;17.20;70.50;;;;;;4970133;28;44054;-69
2022/01/01 10:31:38;;;;;;;1.70;1.70;;;17.20;70.80;;;;;;4965555;28;44342;-69
2022/01/01 10:34:10;;;;;;;1.40;1.40;;;17.30;70.70;;;;;;4969402;28;45140;-69
2022/01/01 10:36:40;;;;;;;1.60;1.60;;;17.40;70.20;;;;;;4969462;28;43903;-69
2022/01/01 10:39:09;;;;;;;1.47;1.47;;;17.40;69.80;;;;;;4968526;28;43420;-70
2022/01/01 10:41:48;;;;;;;1.70;1.70;;;17.50;69.90;;;;;;4951319;28;43962;-69
2022/01/01 10:44:17;;;;;;;1.50;1.50;;;17.40;69.90;;;;;;4950604;28;44919;-69
2022/01/01 10:46:45;;;;;;;1.60;1.60;;;17.40;70.10;;;;;;4950623;28;43944;-69
2022/01/01 10:49:34;;;;;;;1.60;1.60;;;17.30;70.20;;;;;;4949271;28;44041;-69
2022/01/01 10:52:21;;;;;;;1.47;1.47;;;17.30;70.40;;;;;;4951287;28;43964;-69
2022/01/01 10:54:56;;;;;;;1.50;1.50;;;17.30;70.60;;;;;;4950597;28;44031;-69
2022/01/01 10:57:29;;;;;;;1.77;1.77;;;17.20;70.60;;;;;;4950458;28;44036;-70
2022/01/01 11:00:21;;;;;;;1.40;1.40;;;17.20;70.70;;;;;;4950617;28;43840;-69
2022/01/01 11:02:50;;;;;;;1.60;1.60;;;17.20;70.80;;;;;;4936456;28;43982;-69
2022/01/01 11:05:28;;;;;;;1.40;1.40;;;17.20;70.90;;;;;;4950311;28;43866;-69
2022/01/01 11:07:57;;;;;;;1.50;1.50;;;17.10;71.70;;;;;;4950509;28;44115;-70
2022/01/01 11:10:25;;;;;;;1.70;1.60;;;17.20;71.00;;;;;;4950021;28;43769;-70
2022/01/01 11:12:54;;;;;;;1.33;1.33;;;17.30;70.60;;;;;;4949915;28;43897;-69
2022/01/01 11:15:22;;;;;;;1.50;1.50;;;17.40;70.10;;;;;;4950049;28;43844;-69
2022/01/01 11:17:50;;;;;;;1.50;1.50;;;17.60;69.70;;;;;;4950263;28;44102;-69
2022/01/01 11:20:18;;;;;;;1.40;1.40;;;17.70;69.20;;;;;;4950237;28;43991;-69
2022/01/01 11:22:47;;;;;;;1.30;1.30;;;17.70;68.90;;;;;;4950409;28;43951;-69
2022/01/01 11:25:17;;;;;;;1.60;1.60;;;17.70;69.00;;;;;;4949959;28;43846;-69
2022/01/01 11:27:45;;;;;;;1.40;1.40;;;17.60;69.20;;;;;;4950013;28;44086;-69
2022/01/01 11:30:14;;;;;;;1.30;1.30;;;17.50;70.10;;;;;;4949930;28;44042;-70
2022/01/01 11:32:44;;;;;;;1.23;1.23;;;17.50;69.70;;;;;;4950439;28;43911;-69
2022/01/01 11:35:13;;;;;;;1.40;1.40;;;17.40;69.80;;;;;;4949492;28;44027;-69
2022/01/01 11:37:54;;;;;;;1.20;1.20;;;17.40;70.10;;;;;;4949799;28;43965;-69
2022/01/01 11:40:24;;;;;;;1.40;1.40;;;17.30;70.30;;;;;;4950117;28;44025;-69
2022/01/01 11:42:52;;;;;;;3.83;1.47;;;17.30;70.40;;;;;;4950066;28;43848;-70
2022/01/01 11:45:45;;;;;;;1.63;1.53;;;17.20;70.40;;;;;;4949254;28;44032;-70
2022/01/01 11:48:28;;;;;;;1.60;1.50;;;17.30;70.70;;;;;;4949862;28;44103;-69
2022/01/01 11:50:56;;;;;;;1.57;1.47;;;17.40;70.50;;;;;;4948314;28;43931;-69
2022/01/01 11:53:28;;;;;;;1.53;1.50;;;17.40;70.00;;;;;;4950094;28;43616;-69
2022/01/01 11:56:07;;;;;;;1.43;1.33;;;17.50;69.80;;;;;;4949590;28;43916;-69
2022/01/01 11:58:53;;;;;;;7.50;1.60;;;17.40;69.70;;;;;;4948309;28;44716;-69
2022/01/01 12:01:23;;;;;;;1.43;1.30;;;17.40;69.90;;;;;;4947949;28;44039;-70
2022/01/01 12:03:51;;;;;;;1.40;1.40;;;17.40;70.10;;;;;;4949731;28;43940;-70
2022/01/01 12:06:19;;;;;;;1.50;1.50;;;17.30;70.20;;;;;;4949555;28;43983;-70
2022/01/01 12:08:50;;;;;;;1.40;1.30;;;17.30;70.40;;;;;;4949399;28;44077;-69
2022/01/01 12:11:29;;;;;;;1.40;1.40;;;17.20;70.50;;;;;;4949824;28;43884;-69
2022/01/01 12:13:57;;;;;;;1.53;1.40;;;17.20;70.60;;;;;;4948247;28;44004;-69
2022/01/01 12:16:26;;;;;;;1.37;1.37;;;17.20;70.70;;;;;;4949187;28;44029;-69
2022/01/01 12:19:02;;;;;;;1.40;1.40;;;17.20;70.80;;;;;;4965890;28;43938;-69
2022/01/01 12:21:31;;;;;;;1.40;1.40;;;17.10;70.80;;;;;;4968136;28;44068;-70
2022/01/01 12:23:59;;;;;;;1.53;1.40;;;17.10;71.10;;;;;;4967277;28;44103;-69
2022/01/01 12:26:33;;;;;;;1.70;1.60;;;17.20;71.00;;;;;;4982591;28;47581;-69
2022/01/01 12:29:04;;;;;;;1.57;1.47;;;17.30;70.60;;;;;;4968178;28;43892;-70
2022/01/01 12:31:32;;;;;;;1.50;1.50;;;17.50;70.20;;;;;;4962477;28;43540;-69
2022/01/01 12:34:09;;;;;;;1.43;1.43;;;17.60;69.60;;;;;;4962189;28;43904;-69
2022/01/01 12:36:41;;;;;;;1.23;1.23;;;17.70;69.20;;;;;;4963666;28;43942;-70
2022/01/01 12:39:09;;;;;;;1.53;1.53;;;17.70;69.10;;;;;;4969067;28;44126;-69
2022/01/01 12:41:39;;;;;;;1.37;1.37;;;17.60;69.10;;;;;;4968989;28;43881;-69
2022/01/01 12:44:08;;;;;;;1.63;1.50;;;17.60;69.40;;;;;;4968258;28;44181;-69
2022/01/01 12:46:37;;;;;;;1.60;1.60;;;17.50;69.70;;;;;;4967643;28;45260;-69
2022/01/01 12:49:06;;;;;;;2.43;1.50;;;17.40;69.90;;;;;;4966321;28;45054;-70
2022/01/01 12:51:37;;;;;;;1.90;1.80;;;17.40;70.20;;;;;;4967797;28;44033;-69
2022/01/01 12:54:06;;;;;;;1.77;1.50;;;17.30;70.30;;;;;;4968118;28;43919;-69
2022/01/01 12:56:35;;;;;;;1.73;1.63;;;17.30;70.50;;;;;;4967365;28;43979;-69
2022/01/01 12:59:07;;;;;;;1.40;1.40;;;17.20;70.60;;;;;;4967064;28;43435;-69
2022/01/01 13:01:35;;;;;;;1.70;1.70;;;17.20;70.90;;;;;;4982369;28;44073;-70
2022/01/01 13:04:06;;;;;;;4.47;1.87;;;17.20;70.80;;;;;;4968107;28;43853;-69